Time;durP1;ratioP1;P1;durP2;ratioP2;P2;SDS_P1;SDS_P2;PMS_P1;PMS_P2;Temp;Humidity;BMP_temperature;BMP_pressure;BME280_temperature;BME280_humidity;BME280_pressure;Samples;Min_cycle;Max_cycle;Signal;HPM_P1;HPM_P2
2023/12/02 00:00:14;;;;;;;8.05;6.65;;;;;;;-1.13;83.93;100203.69;7396171;19;20360;-56
2023/12/02 00:02:40;;;;;;;9.73;7.78;;;;;;;-1.16;83.96;100198.72;7395085;19;20401;-58
2023/12/02 00:05:08;;;;;;;7.65;6.85;;;;;;;-1.13;84.19;100198.47;7395990;19;20372;-58
2023/12/02 00:07:35;;;;;;;9.20;7.43;;;;;;;-1.11;84.51;100191.38;7395792;19;20332;-57
2023/12/02 00:10:01;;;;;;;9.60;8.32;;;;;;;-1.05;84.54;100193.53;7396264;19;20372;-58
2023/12/02 00:12:28;;;;;;;11.40;9.00;;;;;;;-1.04;84.39;100195.22;7394342;19;20361;-57
2023/12/02 00:14:55;;;;;;;11.65;9.30;;;;;;;-1.05;84.40;100193.53;7395825;19;20344;-59
2023/12/02 00:17:22;;;;;;;12.57;10.25;;;;;;;-1.05;84.40;100193.53;7389974;19;20384;-58
2023/12/02 00:19:48;;;;;;;12.55;10.00;;;;;;;-1.04;84.61;100190.00;7392707;19;20380;-57
2023/12/02 00:22:15;;;;;;;12.20;9.98;;;;;;;-1.02;84.39;100193.31;7395959;19;20385;-58
2023/12/02 00:24:42;;;;;;;12.68;10.20;;;;;;;-1.03;84.45;100194.25;7396527;19;20431;-54
2023/12/02 00:27:12;;;;;;;12.50;10.68;;;;;;;-1.01;84.31;100187.16;7396691;19;20364;-59
2023/12/02 00:29:39;;;;;;;12.95;11.15;;;;;;;-0.99;84.52;100200.09;7395499;19;20357;-58
2023/12/02 00:32:06;;;;;;;14.23;11.95;;;;;;;-1.03;84.53;100191.66;7396213;19;20347;-59
2023/12/02 00:34:32;;;;;;;14.77;12.60;;;;;;;-1.03;84.92;100194.25;7395865;19;20370;-59
2023/12/02 00:36:59;;;;;;;13.18;10.90;;;;;;;-1.07;84.92;100196.25;7394322;19;20384;-58
2023/12/02 00:39:27;;;;;;;12.50;10.57;;;;;;;-1.10;84.91;100199.09;7394809;19;20356;-58
2023/12/02 00:41:54;;;;;;;12.10;10.60;;;;;;;-1.10;84.89;100193.06;7394602;19;20344;-57
2023/12/02 00:44:21;;;;;;;13.38;11.30;;;;;;;-1.14;85.26;100197.66;7395582;19;20352;-58
2023/12/02 00:46:48;;;;;;;14.27;11.02;;;;;;;-1.16;84.81;100198.72;7395216;19;20432;-55
2023/12/02 00:49:14;;;;;;;14.00;11.57;;;;;;;-1.13;85.42;100194.09;7391665;19;20718;-58
2023/12/02 00:51:41;;;;;;;13.75;11.73;;;;;;;-1.11;85.36;100191.38;7395221;19;20860;-56
2023/12/02 00:54:08;;;;;;;13.38;11.00;;;;;;;-1.11;85.03;100196.59;7394646;19;20350;-60
2023/12/02 00:56:35;;;;;;;15.05;13.07;;;;;;;-1.14;85.23;100189.84;7394258;19;20389;-55
2023/12/02 00:59:02;;;;;;;15.50;13.25;;;;;;;-1.14;85.38;100191.63;7393669;19;20899;-57
2023/12/02 01:01:29;;;;;;;15.60;13.18;;;;;;;-1.19;85.63;100191.09;7395482;19;20368;-57
2023/12/02 01:03:56;;;;;;;17.27;14.25;;;;;;;-1.20;85.67;100197.28;7390066;19;20884;-56
2023/12/02 01:06:23;;;;;;;17.90;14.73;;;;;;;-1.19;85.96;100201.53;7394195;19;20949;-55
2023/12/02 01:08:50;;;;;;;18.73;15.55;;;;;;;-1.17;85.98;100207.44;7393070;19;20360;-57
2023/12/02 01:11:16;;;;;;;19.50;16.03;;;;;;;-1.21;85.86;100206.00;7393792;19;20436;-58
2023/12/02 01:13:43;;;;;;;21.05;17.60;;;;;;;-1.23;86.02;100201.75;7390651;19;20788;-57
2023/12/02 01:16:10;;;;;;;22.77;18.20;;;;;;;-1.23;86.37;100214.78;7393555;19;20371;-60
2023/12/02 01:18:37;;;;;;;22.95;18.58;;;;;;;-1.26;86.58;100207.16;7394701;19;20446;-56
2023/12/02 01:21:04;;;;;;;27.60;21.27;;;;;;;-1.29;86.81;100210.00;7395316;19;20403;-59
2023/12/02 01:23:31;;;;;;;25.70;20.90;;;;;;;-1.30;86.80;100217.91;7391849;19;20368;-59
2023/12/02 01:25:57;;;;;;;25.40;20.42;;;;;;;-1.33;87.09;100213.78;7391563;19;20478;-58
2023/12/02 01:28:24;;;;;;;25.25;20.77;;;;;;;-1.34;87.16;100221.69;7391924;19;20435;-59
2023/12/02 01:30:51;;;;;;;25.00;19.83;;;;;;;-1.36;87.14;100221.81;7394267;19;20420;-58
2023/12/02 01:33:18;;;;;;;26.40;20.80;;;;;;;-1.36;87.32;100229.63;7393470;19;20444;-58
2023/12/02 01:35:45;;;;;;;25.63;19.65;;;;;;;-1.34;87.40;100227.72;7393923;19;20360;-56
2023/12/02 01:38:12;;;;;;;25.23;19.87;;;;;;;-1.31;87.60;100234.47;7392698;19;20390;-60
2023/12/02 01:40:38;;;;;;;23.02;19.17;;;;;;;-1.32;87.31;100231.06;7393947;19;20360;-57
2023/12/02 01:43:05;;;;;;;25.23;20.05;;;;;;;-1.35;87.48;100235.63;7392129;19;20368;-57
2023/12/02 01:45:32;;;;;;;25.02;20.15;;;;;;;-1.33;87.13;100231.16;7393966;19;20379;-58
2023/12/02 01:47:59;;;;;;;22.45;17.85;;;;;;;-1.36;86.93;100237.41;7393404;19;20324;-60
2023/12/02 01:50:26;;;;;;;21.48;17.00;;;;;;;-1.41;87.03;100231.69;7390622;19;20431;-57
2023/12/02 01:52:53;;;;;;;20.70;17.23;;;;;;;-1.42;86.85;100231.78;7394046;19;20809;-56
2023/12/02 01:55:20;;;;;;;20.87;17.50;;;;;;;-1.46;86.83;100233.81;7393409;19;20895;-59
2023/12/02 01:57:47;;;;;;;23.85;17.13;;;;;;;-1.50;86.99;100235.78;7391947;19;20761;-57
2023/12/02 02:00:14;;;;;;;22.75;18.45;;;;;;;-1.55;86.74;100230.09;7389490;19;20354;-60
2023/12/02 02:02:41;;;;;;;22.08;17.45;;;;;;;-1.58;87.20;100229.47;7392166;19;20365;-58
2023/12/02 02:05:08;;;;;;;21.52;17.02;;;;;;;-1.60;87.13;100231.34;7392173;19;20376;-55
2023/12/02 02:07:35;;;;;;;21.85;16.67;;;;;;;-1.61;87.21;100229.69;7390297;19;20427;-57
2023/12/02 02:10:02;;;;;;;21.05;16.48;;;;;;;-1.68;87.23;100230.13;7392537;19;20365;-58
2023/12/02 02:12:29;;;;;;;21.97;17.30;;;;;;;-1.66;87.35;100225.66;7392208;19;20361;-60
2023/12/02 02:14:56;;;;;;;21.88;17.60;;;;;;;-1.63;87.32;100231.56;7391018;19;20379;-60
2023/12/02 02:17:23;;;;;;;20.77;17.25;;;;;;;-1.61;87.54;100224.50;7392504;19;20348;-57
2023/12/02 02:19:50;;;;;;;21.98;17.40;;;;;;;-1.58;87.68;100229.47;7383104;19;20484;-57
2023/12/02 02:22:16;;;;;;;25.70;19.48;;;;;;;-1.57;87.34;100225.91;7390457;19;20882;-57
2023/12/02 02:24:43;;;;;;;24.55;19.85;;;;;;;-1.63;87.36;100237.59;7393137;19;20744;-56
2023/12/02 02:27:10;;;;;;;25.60;19.35;;;;;;;-1.64;87.37;100230.72;7397254;19;20781;-58
2023/12/02 02:29:37;;;;;;;25.45;18.83;;;;;;;-1.68;87.59;100237.94;7396149;19;20377;-59
2023/12/02 02:32:04;;;;;;;26.83;19.17;;;;;;;-1.68;87.80;100231.88;7399978;19;20332;-57
2023/12/02 02:34:31;;;;;;;23.25;18.08;;;;;;;-1.66;88.10;100237.78;7399372;19;20368;-58
2023/12/02 02:36:58;;;;;;;21.73;16.52;;;;;;;-1.68;88.05;100232.72;7398708;19;20691;-58
2023/12/02 02:39:25;;;;;;;20.75;15.77;;;;;;;-1.65;88.36;100227.28;7399737;19;20772;-60
2023/12/02 02:41:52;;;;;;;22.17;16.40;;;;;;;-1.61;88.61;100229.69;7397826;19;20393;-57
2023/12/02 02:44:19;;;;;;;21.58;16.20;;;;;;;-1.60;88.26;100226.13;7398443;19;20427;-59
2023/12/02 02:46:45;;;;;;;20.83;17.10;;;;;;;-1.62;88.46;100228.00;7398445;19;20378;-59
2023/12/02 02:49:12;;;;;;;21.83;17.63;;;;;;;-1.66;87.87;100222.19;7398245;19;20348;-56
2023/12/02 02:51:39;;;;;;;23.20;18.50;;;;;;;-1.70;88.42;100221.59;7397995;19;20372;-58
2023/12/02 02:54:06;;;;;;;23.35;18.25;;;;;;;-1.72;88.45;100220.00;7398770;19;20422;-58
2023/12/02 02:56:33;;;;;;;24.00;18.35;;;;;;;-1.74;88.48;100219.28;7396957;19;20828;-57
2023/12/02 02:59:00;;;;;;;24.92;18.98;;;;;;;-1.76;88.41;100222.03;7397970;19;20441;-61
2023/12/02 03:01:26;;;;;;;25.60;19.65;;;;;;;-1.81;88.71;100218.91;7398886;19;20376;-59
2023/12/02 03:03:53;;;;;;;23.95;18.17;;;;;;;-1.83;89.03;100225.16;7395363;19;20860;-60
2023/12/02 03:06:21;;;;;;;22.02;16.88;;;;;;;-1.89;89.23;100218.59;7397550;19;20383;-61
2023/12/02 03:08:48;;;;;;;23.25;17.00;;;;;;;-1.89;89.61;100223.78;7396907;19;20401;-60
2023/12/02 03:11:15;;;;;;;23.10;17.10;;;;;;;-1.87;90.15;100224.53;7397395;19;20444;-60
2023/12/02 03:13:41;;;;;;;23.55;17.48;;;;;;;-1.83;89.81;100227.75;7395317;19;20383;-60
2023/12/02 03:16:09;;;;;;;27.40;20.10;;;;;;;-1.82;89.77;100227.66;7396159;19;20844;-57
2023/12/02 03:18:35;;;;;;;27.77;22.35;;;;;;;-1.79;89.87;100232.63;7396832;19;20746;-59
2023/12/02 03:21:02;;;;;;;31.60;23.75;;;;;;;-1.74;89.94;100230.56;7397785;19;20340;-60
2023/12/02 03:23:29;;;;;;;27.70;23.15;;;;;;;-1.73;89.71;100228.78;7397669;19;20685;-59
2023/12/02 03:25:56;;;;;;;29.90;23.40;;;;;;;-1.73;89.66;100227.00;7399236;19;20364;-60
2023/12/02 03:28:23;;;;;;;27.52;22.42;;;;;;;-1.72;89.55;100223.47;7395724;19;20361;-61
2023/12/02 03:30:50;;;;;;;30.45;22.88;;;;;;;-1.71;89.50;100226.91;7398300;19;20368;-58
2023/12/02 03:33:16;;;;;;;29.52;22.48;;;;;;;-1.73;89.80;100227.00;7396096;19;20374;-58
2023/12/02 03:35:43;;;;;;;29.67;22.40;;;;;;;-1.75;89.86;100217.66;7397692;19;20340;-59
2023/12/02 03:38:10;;;;;;;29.23;21.85;;;;;;;-1.78;89.75;100220.47;7397788;19;20356;-59
2023/12/02 03:40:37;;;;;;;30.65;23.23;;;;;;;-1.78;90.14;100218.69;7396842;19;20354;-58
2023/12/02 03:43:04;;;;;;;33.90;25.02;;;;;;;-1.76;90.02;100218.59;7397399;19;20423;-59
2023/12/02 03:45:31;;;;;;;35.08;25.45;;;;;;;-1.76;90.16;100221.19;7395619;19;20354;-60
2023/12/02 03:47:58;;;;;;;32.58;24.50;;;;;;;-1.79;90.09;100222.22;7392840;19;20364;-60
2023/12/02 03:50:25;;;;;;;37.20;26.50;;;;;;;-1.78;90.39;100216.09;7394403;19;20584;-59
2023/12/02 03:52:51;;;;;;;34.00;25.27;;;;;;;-1.77;90.37;100215.16;7395729;19;20440;-59
2023/12/02 03:55:18;;;;;;;37.28;26.52;;;;;;;-1.81;90.40;100218.91;7397062;19;20370;-61
2023/12/02 03:57:45;;;;;;;35.88;25.40;;;;;;;-1.85;90.40;100213.09;7394572;19;20385;-56
2023/12/02 04:00:15;;;;;;;34.80;24.73;;;;;;;-1.83;90.30;100207.78;7397288;19;20357;-56
2023/12/02 04:02:42;;;;;;;36.22;25.83;;;;;;;-1.82;90.61;100217.25;7396192;19;20353;-57
2023/12/02 04:05:11;;;;;;;36.08;26.17;;;;;;;-1.81;90.68;100218.91;7396458;19;20353;-58
2023/12/02 04:07:38;;;;;;;35.92;26.08;;;;;;;-1.79;90.70;100222.22;7394961;19;21071;-59
2023/12/02 04:10:06;;;;;;;35.83;26.53;;;;;;;-1.78;90.81;100223.91;7394976;19;20388;-56
2023/12/02 04:12:35;;;;;;;35.10;25.08;;;;;;;-1.80;90.63;100228.38;7394620;19;20360;-57
2023/12/02 04:15:03;;;;;;;35.42;26.13;;;;;;;-1.81;90.49;100221.50;7395607;19;20903;-57
2023/12/02 04:17:30;;;;;;;38.55;26.88;;;;;;;-1.80;90.66;100230.16;7397790;19;20363;-61
2023/12/02 04:19:57;;;;;;;36.20;26.27;;;;;;;-1.80;90.83;100230.97;7395503;19;20703;-59
2023/12/02 04:22:24;;;;;;;35.50;26.67;;;;;;;-1.79;90.56;100232.63;7394879;19;20352;-58
2023/12/02 04:24:51;;;;;;;36.95;26.67;;;;;;;-1.80;90.69;100228.38;7395792;19;20886;-60
2023/12/02 04:27:18;;;;;;;37.83;26.63;;;;;;;-1.82;90.66;100227.66;7388432;19;20392;-60
2023/12/02 04:29:45;;;;;;;38.17;28.02;;;;;;;-1.77;90.79;100235.94;7393208;19;20405;-59
2023/12/02 04:32:11;;;;;;;36.30;27.13;;;;;;;-1.73;90.95;100237.41;7396105;19;20368;-59
2023/12/02 04:34:38;;;;;;;37.22;27.15;;;;;;;-1.75;90.79;100234.06;7395062;19;20357;-58
2023/12/02 04:37:05;;;;;;;38.00;26.98;;;;;;;-1.73;90.64;100237.41;7393964;19;20360;-60
2023/12/02 04:39:33;;;;;;;35.60;26.45;;;;;;;-1.75;90.89;100238.44;7394550;19;20370;-59
2023/12/02 04:42:00;;;;;;;33.78;25.83;;;;;;;-1.76;90.67;100235.03;7395229;19;20368;-59
2023/12/02 04:44:27;;;;;;;35.03;26.65;;;;;;;-1.77;90.84;100235.94;7393628;19;20376;-60
2023/12/02 04:46:54;;;;;;;32.05;25.70;;;;;;;-1.78;90.88;100238.69;7393975;19;20347;-60
2023/12/02 04:49:20;;;;;;;33.75;26.33;;;;;;;-1.79;90.89;100235.22;7391321;19;20684;-59
2023/12/02 04:51:47;;;;;;;33.30;26.42;;;;;;;-1.79;90.80;100245.63;7392910;19;20713;-60
2023/12/02 04:54:14;;;;;;;36.03;26.95;;;;;;;-1.78;91.07;100243.88;7394251;19;20385;-60
2023/12/02 04:56:41;;;;;;;34.97;26.97;;;;;;;-1.74;90.85;100243.56;7393285;19;20452;-59
2023/12/02 04:59:08;;;;;;;34.33;26.90;;;;;;;-1.72;90.97;100244.28;7394034;19;20348;-60
2023/12/02 05:01:35;;;;;;;36.65;27.58;;;;;;;-1.70;91.12;100247.59;7392695;19;20436;-58
2023/12/02 05:04:01;;;;;;;35.42;26.98;;;;;;;-1.67;91.06;100254.34;7393028;19;20867;-61
2023/12/02 05:06:29;;;;;;;35.83;27.07;;;;;;;-1.68;91.08;100250.06;7392557;19;20380;-60
2023/12/02 05:08:56;;;;;;;35.67;26.57;;;;;;;-1.67;90.86;100251.75;7392846;19;20368;-60
2023/12/02 05:11:23;;;;;;;35.78;26.48;;;;;;;-1.66;90.90;100256.00;7391771;19;20373;-59
2023/12/02 05:13:52;;;;;;;34.63;26.00;;;;;;;-1.69;90.54;100259.66;7389559;19;20374;-60
2023/12/02 05:16:19;;;;;;;32.35;25.20;;;;;;;-1.70;90.09;100262.34;7391022;19;20354;-58
2023/12/02 05:18:49;;;;;;;34.28;26.15;;;;;;;-1.72;90.49;100259.88;7392012;19;20367;-60
2023/12/02 05:21:18;;;;;;;35.00;25.65;;;;;;;-1.69;90.62;100259.66;7391774;19;20870;-58
2023/12/02 05:23:45;;;;;;;32.73;24.67;;;;;;;-1.66;90.61;100249.06;7394338;19;20840;-60
2023/12/02 05:26:12;;;;;;;34.67;26.00;;;;;;;-1.62;90.65;100248.81;7391285;19;20420;-59
2023/12/02 05:28:39;;;;;;;33.97;25.43;;;;;;;-1.59;90.41;100251.19;7392983;19;20388;-59
2023/12/02 05:31:06;;;;;;;33.78;25.00;;;;;;;-1.57;90.50;100251.91;7391205;19;20372;-58
2023/12/02 05:33:33;;;;;;;33.45;24.92;;;;;;;-1.53;90.55;100250.75;7393773;19;20432;-58
2023/12/02 05:36:00;;;;;;;31.83;23.95;;;;;;;-1.53;90.35;100254.22;7394079;19;20361;-59
2023/12/02 05:38:27;;;;;;;34.75;24.70;;;;;;;-1.51;90.45;100244.53;7394140;19;20372;-58
2023/12/02 05:40:54;;;;;;;33.42;25.75;;;;;;;-1.52;90.54;100242.88;7394765;19;20360;-59
2023/12/02 05:43:20;;;;;;;36.10;26.90;;;;;;;-1.52;90.42;100255.03;7392940;19;20641;-60
2023/12/02 05:45:47;;;;;;;36.67;27.13;;;;;;;-1.51;90.43;100251.50;7393647;19;20336;-60
2023/12/02 05:48:16;;;;;;;34.67;27.00;;;;;;;-1.50;90.54;100263.56;7394100;19;20339;-59
2023/12/02 05:50:43;;;;;;;35.90;27.02;;;;;;;-1.48;90.55;100259.09;7392120;19;20356;-59
2023/12/02 05:53:10;;;;;;;35.88;26.45;;;;;;;-1.50;90.39;100258.38;7393941;19;20427;-58
2023/12/02 05:55:37;;;;;;;34.70;26.50;;;;;;;-1.48;90.48;100259.91;7393748;19;20883;-59
2023/12/02 05:58:04;;;;;;;38.10;28.45;;;;;;;-1.51;90.44;100267.09;7393703;19;20374;-59
2023/12/02 06:00:30;;;;;;;38.67;29.15;;;;;;;-1.48;90.42;100264.31;7398152;19;20718;-59
2023/12/02 06:02:57;;;;;;;38.40;28.52;;;;;;;-1.48;90.50;100261.69;7398358;19;20416;-58
2023/12/02 06:05:24;;;;;;;37.03;28.60;;;;;;;-1.50;90.54;100260.97;7400602;19;20357;-57
2023/12/02 06:07:51;;;;;;;36.53;27.98;;;;;;;-1.53;90.55;100266.38;7400731;19;20372;-58
2023/12/02 06:10:18;;;;;;;36.20;27.95;;;;;;;-1.55;90.50;100265.66;7399452;19;20356;-58
2023/12/02 06:12:45;;;;;;;38.72;28.45;;;;;;;-1.54;90.45;100259.53;7399797;19;20867;-58
2023/12/02 06:15:12;;;;;;;37.10;27.65;;;;;;;-1.54;90.16;100264.72;7399778;19;20378;-60
2023/12/02 06:17:39;;;;;;;37.63;29.35;;;;;;;-1.57;90.39;100270.97;7401133;19;20360;-59
2023/12/02 06:20:09;;;;;;;36.88;28.45;;;;;;;-1.59;90.67;100270.25;7399900;19;20411;-60
2023/12/02 06:22:36;;;;;;;36.53;27.75;;;;;;;-1.60;90.37;100270.34;7398425;19;20364;-59
2023/12/02 06:25:03;;;;;;;37.33;28.73;;;;;;;-1.58;90.85;100269.31;7398130;19;20410;-57
2023/12/02 06:27:30;;;;;;;37.20;27.00;;;;;;;-1.57;90.62;100267.53;7398814;19;20371;-60
2023/12/02 06:29:56;;;;;;;37.28;29.27;;;;;;;-1.56;90.63;100269.19;7399104;19;20876;-57
2023/12/02 06:32:23;;;;;;;36.45;27.92;;;;;;;-1.55;90.83;100270.84;7399202;19;20364;-59
2023/12/02 06:34:50;;;;;;;38.53;29.60;;;;;;;-1.52;90.81;100268.88;7399853;19;20358;-59
2023/12/02 06:37:17;;;;;;;38.67;28.80;;;;;;;-1.51;90.66;100280.09;7398821;19;20354;-58
2023/12/02 06:39:44;;;;;;;37.60;27.83;;;;;;;-1.52;90.70;100281.06;7399419;19;20729;-58
2023/12/02 06:42:10;;;;;;;37.10;28.13;;;;;;;-1.53;90.82;100285.44;7399086;19;20864;-59
2023/12/02 06:44:38;;;;;;;38.47;28.95;;;;;;;-1.53;90.52;100282.84;7397473;19;20380;-59
2023/12/02 06:47:06;;;;;;;38.40;29.45;;;;;;;-1.54;90.36;100285.53;7397644;19;20383;-59
2023/12/02 06:49:33;;;;;;;38.53;28.90;;;;;;;-1.53;90.61;100287.19;7388409;19;20363;-61
2023/12/02 06:51:59;;;;;;;36.22;28.35;;;;;;;-1.53;90.60;100300.19;7398044;19;20372;-58
2023/12/02 06:54:26;;;;;;;38.35;29.40;;;;;;;-1.53;90.72;100287.19;7396710;19;21387;-58
2023/12/02 06:56:53;;;;;;;38.97;29.55;;;;;;;-1.52;90.47;100297.50;7397097;19;20424;-58
2023/12/02 06:59:20;;;;;;;38.40;29.27;;;;;;;-1.49;90.53;100288.63;7396479;19;20373;-58
2023/12/02 07:01:47;;;;;;;36.97;28.75;;;;;;;-1.48;90.81;100303.31;7396295;19;20867;-58
2023/12/02 07:04:14;;;;;;;38.28;29.92;;;;;;;-1.45;90.66;100310.91;7394655;19;20406;-58
2023/12/02 07:06:41;;;;;;;40.03;30.60;;;;;;;-1.44;90.72;100309.97;7396926;19;20412;-59
2023/12/02 07:09:08;;;;;;;39.33;30.73;;;;;;;-1.44;90.78;100316.00;7394483;19;20435;-57
2023/12/02 07:11:35;;;;;;;39.63;30.35;;;;;;;-1.44;90.61;100316.00;7394081;19;20345;-59
2023/12/02 07:14:03;;;;;;;37.95;30.05;;;;;;;-1.44;90.77;100321.19;7397185;19;20864;-59
2023/12/02 07:16:30;;;;;;;38.95;30.13;;;;;;;-1.41;90.85;100314.13;7397015;19;20868;-59
2023/12/02 07:18:57;;;;;;;39.17;29.80;;;;;;;-1.41;91.13;100319.31;7397042;19;20363;-58
2023/12/02 07:21:24;;;;;;;39.63;31.05;;;;;;;-1.42;91.01;100330.66;7396239;19;20848;-60
2023/12/02 07:23:51;;;;;;;37.65;29.60;;;;;;;-1.48;91.30;100324.94;7397827;19;20364;-59
2023/12/02 07:26:18;;;;;;;40.13;31.57;;;;;;;-1.48;91.52;100324.94;7397328;19;20454;-59
2023/12/02 07:28:45;;;;;;;40.10;31.55;;;;;;;-1.43;91.75;100329.84;7396396;19;20871;-59
2023/12/02 07:31:13;;;;;;;41.42;32.15;;;;;;;-1.43;92.06;100332.44;7395403;19;20364;-59
2023/12/02 07:33:41;;;;;;;41.88;32.17;;;;;;;-1.38;92.02;100327.75;7393922;19;20356;-58
2023/12/02 07:36:08;;;;;;;41.55;31.85;;;;;;;-1.37;91.98;100329.41;7396628;19;20365;-56
2023/12/02 07:38:35;;;;;;;41.67;32.40;;;;;;;-1.36;92.30;100336.28;7397620;19;20367;-60
2023/12/02 07:41:02;;;;;;;43.03;31.92;;;;;;;-1.34;92.31;100336.16;7398329;19;20381;-59
2023/12/02 07:43:29;;;;;;;42.75;32.05;;;;;;;-1.34;92.40;100331.81;7394238;19;20363;-55
2023/12/02 07:45:56;;;;;;;42.28;32.85;;;;;;;-1.35;92.41;100332.72;7398067;19;20364;-58
2023/12/02 07:48:22;;;;;;;42.70;32.03;;;;;;;-1.33;92.49;100343.88;7395223;19;20371;-59
2023/12/02 07:50:49;;;;;;;44.50;33.13;;;;;;;-1.37;92.31;100345.03;7394192;19;20380;-59
2023/12/02 07:53:16;;;;;;;45.17;32.75;;;;;;;-1.35;92.51;100342.31;7393273;19;20685;-60
2023/12/02 07:55:43;;;;;;;43.88;32.65;;;;;;;-1.37;92.64;100358.03;7395293;19;20358;-58
2023/12/02 07:58:12;;;;;;;44.08;32.10;;;;;;;-1.37;92.81;100358.03;7395902;19;20364;-58
2023/12/02 08:00:39;;;;;;;45.60;32.72;;;;;;;-1.35;93.22;100361.34;7393034;19;20352;-59
2023/12/02 08:03:06;;;;;;;44.88;31.65;;;;;;;-1.33;92.99;100359.47;7390698;19;20477;-60
2023/12/02 08:05:32;;;;;;;47.45;33.70;;;;;;;-1.30;93.29;100363.63;7392019;19;20356;-60
2023/12/02 08:08:03;;;;;;;43.97;32.20;;;;;;;-1.24;93.38;100358.81;7394442;19;20420;-60
2023/12/02 08:10:30;;;;;;;46.33;32.42;;;;;;;-1.20;92.95;100363.84;7395390;19;20367;-60
2023/12/02 08:12:56;;;;;;;44.00;31.52;;;;;;;-1.19;92.74;100362.88;7394685;19;20795;-61
2023/12/02 08:15:23;;;;;;;42.55;31.35;;;;;;;-1.17;93.00;100363.59;7394102;19;20369;-61
2023/12/02 08:17:50;;;;;;;42.58;31.60;;;;;;;-1.15;92.69;100369.53;7393733;19;20337;-61
2023/12/02 08:20:17;;;;;;;39.58;29.58;;;;;;;-1.17;92.95;100364.47;7394479;19;20352;-62
2023/12/02 08:22:44;;;;;;;42.67;30.77;;;;;;;-1.16;93.09;100370.50;7391029;19;20368;-61
2023/12/02 08:25:11;;;;;;;42.95;31.52;;;;;;;-1.15;93.02;100372.16;7391217;19;20419;-60
2023/12/02 08:27:37;;;;;;;43.40;31.83;;;;;;;-1.11;92.81;100376.19;7391573;19;20380;-61
2023/12/02 08:30:05;;;;;;;40.93;31.00;;;;;;;-1.10;92.90;100378.69;7393439;19;20386;-62
2023/12/02 08:32:31;;;;;;;40.27;30.70;;;;;;;-1.12;92.66;100382.34;7396263;19;20351;-61
2023/12/02 08:34:59;;;;;;;43.28;29.88;;;;;;;-1.11;92.52;100389.22;7395158;19;20391;-61
2023/12/02 08:37:26;;;;;;;39.65;30.15;;;;;;;-1.14;92.58;100389.44;7393759;19;20376;-61
2023/12/02 08:39:53;;;;;;;40.13;30.52;;;;;;;-1.18;92.63;100382.78;7395254;19;20378;-61
2023/12/02 08:42:20;;;;;;;40.03;29.88;;;;;;;-1.19;92.41;100392.38;7394191;19;20428;-62
2023/12/02 08:44:47;;;;;;;40.38;29.40;;;;;;;-1.21;92.73;100389.03;7395138;19;20352;-62
2023/12/02 08:47:14;;;;;;;40.17;29.92;;;;;;;-1.25;92.95;100393.63;7394467;19;20438;-61
2023/12/02 08:49:41;;;;;;;40.13;29.48;;;;;;;-1.26;92.85;100386.72;7393685;19;20862;-60
2023/12/02 08:52:08;;;;;;;43.75;31.85;;;;;;;-1.24;92.89;100384.03;7394108;19;20364;-61
2023/12/02 08:54:34;;;;;;;42.53;31.13;;;;;;;-1.20;92.81;100390.69;7394887;19;20371;-61
2023/12/02 08:57:01;;;;;;;42.05;30.77;;;;;;;-1.16;93.08;100393.91;7394513;19;20384;-61
2023/12/02 08:59:28;;;;;;;42.00;30.38;;;;;;;-1.14;93.41;100397.25;7394825;19;20852;-61
2023/12/02 09:01:55;;;;;;;46.17;31.90;;;;;;;-1.11;93.21;100395.25;7394813;19;20365;-60
2023/12/02 09:04:21;;;;;;;39.80;29.92;;;;;;;-1.02;93.09;100393.75;7389546;19;20364;-61
2023/12/02 09:06:48;;;;;;;41.33;30.98;;;;;;;-1.00;92.83;100402.28;7394536;19;20348;-61
2023/12/02 09:09:15;;;;;;;43.00;31.00;;;;;;;-0.95;92.57;100404.59;7394014;19;21846;-62
2023/12/02 09:11:42;;;;;;;45.83;31.65;;;;;;;-0.92;92.70;100407.81;7392942;19;20436;-59
2023/12/02 09:14:09;;;;;;;43.38;31.52;;;;;;;-0.90;92.53;100407.69;7394841;19;20365;-61
2023/12/02 09:16:36;;;;;;;45.03;32.38;;;;;;;-0.82;92.79;100406.22;7393098;19;20904;-61
2023/12/02 09:19:36;;;;;;;41.10;30.17;;;;;;;-0.79;92.06;100409.53;7392666;19;20363;-61
2023/12/02 09:22:05;;;;;;;40.97;30.27;;;;;;;-0.76;91.94;100399.75;7392776;19;20361;-61
2023/12/02 09:24:37;;;;;;;41.60;30.25;;;;;;;-0.70;92.05;100406.28;7394663;19;20353;-60
2023/12/02 09:27:06;;;;;;;41.92;30.75;;;;;;;-0.67;91.92;100403.47;7393381;19;20356;-59
2023/12/02 09:29:40;;;;;;;43.47;30.57;;;;;;;-0.67;91.65;100398.25;7392637;19;20424;-61
2023/12/02 09:32:08;;;;;;;42.70;30.50;;;;;;;-0.63;91.72;100402.31;7391812;19;20344;-60
2023/12/02 09:34:41;;;;;;;43.97;31.20;;;;;;;-0.57;91.71;100406.22;7392464;19;20714;-59
2023/12/02 09:37:48;;;;;;;42.95;30.85;;;;;;;-0.57;91.32;100407.09;7393067;19;20691;-60
2023/12/02 09:40:22;;;;;;;41.88;31.00;;;;;;;-0.50;91.81;100413.50;7390634;19;20374;-62
2023/12/02 09:43:11;;;;;;;43.72;31.23;;;;;;;-0.50;91.24;100408.28;7393656;19;20480;-61
2023/12/02 09:45:55;;;;;;;42.50;30.20;;;;;;;-0.44;91.53;100413.06;7382574;19;20349;-60
2023/12/02 09:48:24;;;;;;;42.05;30.75;;;;;;;-0.35;91.54;100413.34;7389524;19;20876;-62
2023/12/02 09:51:30;;;;;;;42.70;30.60;;;;;;;-0.26;91.21;100412.66;7390922;19;20373;-60
2023/12/02 09:54:20;;;;;;;42.75;31.80;;;;;;;-0.22;90.75;100411.50;7390024;19;20368;-61
2023/12/02 09:56:55;;;;;;;41.05;30.10;;;;;;;-0.22;90.06;100409.72;7390726;19;20366;-61
2023/12/02 09:59:42;;;;;;;40.45;30.17;;;;;;;-0.23;90.04;100410.66;7391676;19;20360;-61
2023/12/02 10:02:36;;;;;;;42.05;30.23;;;;;;;-0.23;90.46;100413.28;7387762;19;20352;-61
2023/12/02 10:05:10;;;;;;;40.25;29.70;;;;;;;-0.22;90.37;100411.50;7393297;19;20357;-61
2023/12/02 10:08:03;;;;;;;42.17;30.90;;;;;;;-0.19;90.19;100400.88;7391419;19;20364;-60
2023/12/02 10:11:03;;;;;;;38.72;29.05;;;;;;;-0.27;89.95;100411.84;7390115;19;20367;-60
2023/12/02 10:13:55;;;;;;;41.20;29.38;;;;;;;-0.33;90.10;100407.06;7388848;19;20435;-61
2023/12/02 10:16:23;;;;;;;39.92;28.92;;;;;;;-0.31;90.48;100399.16;7388146;19;20380;-61
2023/12/02 10:18:58;;;;;;;40.10;29.33;;;;;;;-0.32;90.41;100398.31;7387785;19;20349;-61
2023/12/02 10:21:38;;;;;;;40.63;29.30;;;;;;;-0.39;90.63;100402.31;7392830;19;20360;-61
2023/12/02 10:24:10;;;;;;;41.38;30.08;;;;;;;-0.38;90.28;100408.34;7387892;19;20346;-61
2023/12/02 10:26:46;;;;;;;39.58;29.63;;;;;;;-0.35;90.76;100393.31;7384861;19;20372;-61
2023/12/02 10:29:24;;;;;;;42.53;29.27;;;;;;;-0.34;90.67;100399.34;7387547;19;20372;-60
2023/12/02 10:32:25;;;;;;;42.10;29.90;;;;;;;-0.34;90.69;100404.56;7389592;19;20380;-61
2023/12/02 10:35:12;;;;;;;41.17;30.00;;;;;;;-0.25;90.99;100409.13;7389989;19;20934;-61
2023/12/02 10:37:41;;;;;;;42.63;30.92;;;;;;;-0.19;90.89;100403.47;7388709;19;20344;-61
2023/12/02 10:40:09;;;;;;;39.45;29.60;;;;;;;-0.15;90.92;100404.91;7386981;19;20750;-61
2023/12/02 10:42:54;;;;;;;41.55;29.85;;;;;;;-0.13;90.33;100405.59;7388097;19;20368;-60
2023/12/02 10:45:21;;;;;;;41.33;30.10;;;;;;;-0.13;90.39;100402.16;7387528;19;20498;-62
2023/12/02 10:47:51;;;;;;;40.13;30.25;;;;;;;-0.07;90.52;100399.94;7393364;19;20355;-60
2023/12/02 10:50:20;;;;;;;41.70;30.67;;;;;;;-0.05;90.26;100411.09;7396258;19;20365;-61
2023/12/02 10:53:00;;;;;;;41.10;30.38;;;;;;;0.00;90.17;100402.94;7388461;19;20351;-61
2023/12/02 10:55:30;;;;;;;41.80;29.48;;;;;;;0.01;90.14;100409.81;7397033;19;20396;-60
2023/12/02 10:57:58;;;;;;;38.08;29.05;;;;;;;-0.01;90.21;100407.31;7398177;19;20369;-59
2023/12/02 11:00:29;;;;;;;40.97;29.83;;;;;;;0.03;90.08;100399.28;7398439;19;20357;-60
2023/12/02 11:03:06;;;;;;;39.28;29.33;;;;;;;0.03;90.13;100396.66;7395931;19;20356;-60
2023/12/02 11:05:56;;;;;;;37.90;28.52;;;;;;;0.03;90.29;100392.28;7396863;19;20343;-59
2023/12/02 11:08:36;;;;;;;38.47;29.17;;;;;;;0.07;90.33;100393.72;7397703;19;20891;-60
2023/12/02 11:11:08;;;;;;;37.53;28.20;;;;;;;0.09;90.24;100393.59;7397366;19;20455;-61
2023/12/02 11:13:36;;;;;;;40.30;29.25;;;;;;;0.11;90.45;100394.31;7396608;19;20702;-60
2023/12/02 11:16:25;;;;;;;38.03;28.27;;;;;;;0.05;90.35;100397.38;7397385;19;20356;-60